PILOTS ONLINE: 412    ATC ONLINE: 57

KOTH

Southwest Oregon Regional Airport

Location

IATA OTH
City North Bend
Country  United States
Latitude 43° 25' 1" N
Longitude 124° 14' 45" W
Elevation 17 ft
Type Medium Airport

Map

Weather

METAR
2014/09/16 15:15
KOTH 161515Z 12006KT 10SM CLR 13/13 A2993 RMK AO1
TAF
2014/09/16 12:24
TAF KOTH 161120Z 1612/1712 14005KT P6SM SCT005 SCT250 
     FM161500 VRB03KT P6SM SCT005 BKN250 
     FM161900 25008KT P6SM SCT080 BKN250 
     FM170200 VRB03KT P6SM SCT040 OVC080

Runways

04/22 5321 ft / 150 ft
13/31 4471 ft / 150 ft

Outbound flights

Callsign Flying to Pilot ATD/STD ETA Aircraft

Inbound flights

Callsign Flying from Pilot ATD ETA Aircraft